sensor_id;sensor_type;location;lat;lon;timestamp;pressure;altitude;pressure_sealevel;temperature;humidity
7832;BME280;3961;42.058;25.586;2023-02-14T00:01:28;62313.38;;;0.95;90.33
7832;BME280;3961;42.058;25.586;2023-02-14T00:03:54;62325.19;;;0.98;90.39
7832;BME280;3961;42.058;25.586;2023-02-14T00:06:25;62327.47;;;1.00;89.60
7832;BME280;3961;42.058;25.586;2023-02-14T00:08:50;62316.88;;;0.93;89.98
7832;BME280;3961;42.058;25.586;2023-02-14T00:11:19;62325.44;;;1.01;89.99
7832;BME280;3961;42.058;25.586;2023-02-14T00:13:45;62333.69;;;1.11;88.67
7832;BME280;3961;42.058;25.586;2023-02-14T00:16:30;62331.41;;;1.09;87.88
7832;BME280;3961;42.058;25.586;2023-02-14T00:18:56;62341.69;;;1.18;86.39
7832;BME280;3961;42.058;25.586;2023-02-14T00:21:27;62370.56;;;1.41;85.95
7832;BME280;3961;42.058;25.586;2023-02-14T00:23:53;62377.09;;;1.49;84.35
7832;BME280;3961;42.058;25.586;2023-02-14T00:26:18;62346.00;;;1.19;84.42
7832;BME280;3961;42.058;25.586;2023-02-14T00:28:44;62361.16;;;1.30;85.53
7832;BME280;3961;42.058;25.586;2023-02-14T00:31:09;62367.13;;;1.38;85.37
7832;BME280;3961;42.058;25.586;2023-02-14T00:33:35;62343.72;;;1.17;86.27
7832;BME280;3961;42.058;25.586;2023-02-14T00:36:03;62278.31;;;0.61;87.94
7832;BME280;3961;42.058;25.586;2023-02-14T00:38:29;62296.31;;;0.75;88.35
7832;BME280;3961;42.058;25.586;2023-02-14T00:40:55;62304.06;;;0.80;88.76
7832;BME280;3961;42.058;25.586;2023-02-14T00:43:20;62311.41;;;0.91;88.74
7832;BME280;3961;42.058;25.586;2023-02-14T00:45:46;62302.59;;;0.81;88.05
7832;BME280;3961;42.058;25.586;2023-02-14T00:48:11;62289.38;;;0.74;87.34
7832;BME280;3961;42.058;25.586;2023-02-14T00:50:37;62265.75;;;0.50;89.40
7832;BME280;3961;42.058;25.586;2023-02-14T00:53:02;62289.78;;;0.67;88.73
7832;BME280;3961;42.058;25.586;2023-02-14T00:55:28;62281.50;;;0.62;89.80
7832;BME280;3961;42.058;25.586;2023-02-14T00:57:53;62283.44;;;0.66;88.29
7832;BME280;3961;42.058;25.586;2023-02-14T01:00:19;62280.59;;;0.63;89.45
7832;BME280;3961;42.058;25.586;2023-02-14T01:02:45;62271.44;;;0.55;89.46
7832;BME280;3961;42.058;25.586;2023-02-14T01:05:10;62308.31;;;0.86;87.62
7832;BME280;3961;42.058;25.586;2023-02-14T01:07:36;62261.19;;;0.46;88.50
7832;BME280;3961;42.058;25.586;2023-02-14T01:10:01;62232.31;;;0.23;90.35
7832;BME280;3961;42.058;25.586;2023-02-14T01:12:27;62277.81;;;0.56;88.75
7832;BME280;3961;42.058;25.586;2023-02-14T01:14:52;62225.56;;;0.12;91.50
7832;BME280;3961;42.058;25.586;2023-02-14T01:17:18;62236.41;;;0.22;90.96
7832;BME280;3961;42.058;25.586;2023-02-14T01:19:43;62229.88;;;0.14;92.47
7832;BME280;3961;42.058;25.586;2023-02-14T01:22:09;62239.81;;;0.25;91.50
7832;BME280;3961;42.058;25.586;2023-02-14T01:24:35;62238.94;;;0.26;91.51
7832;BME280;3961;42.058;25.586;2023-02-14T01:27:00;62240.72;;;0.23;91.19
7832;BME280;3961;42.058;25.586;2023-02-14T01:29:26;62191.09;;;-0.21;93.10
7832;BME280;3961;42.058;25.586;2023-02-14T01:31:51;62207.78;;;0.01;94.29
7832;BME280;3961;42.058;25.586;2023-02-14T01:34:17;62216.66;;;0.07;94.47
7832;BME280;3961;42.058;25.586;2023-02-14T01:36:42;62229.22;;;0.18;94.17
7832;BME280;3961;42.058;25.586;2023-02-14T01:39:15;62239.19;;;0.29;91.91
7832;BME280;3961;42.058;25.586;2023-02-14T01:41:43;62249.19;;;0.36;91.49
7832;BME280;3961;42.058;25.586;2023-02-14T01:46:38;62240.66;;;0.28;92.06
7832;BME280;3961;42.058;25.586;2023-02-14T01:51:36;62283.78;;;0.64;88.55
7832;BME280;3961;42.058;25.586;2023-02-14T01:54:05;62276.03;;;0.59;89.69
7832;BME280;3961;42.058;25.586;2023-02-14T01:56:35;62250.31;;;0.37;90.52
7832;BME280;3961;42.058;25.586;2023-02-14T01:59:05;62261.50;;;0.44;91.53
7832;BME280;3961;42.058;25.586;2023-02-14T02:01:32;62250.44;;;0.32;92.85
7832;BME280;3961;42.058;25.586;2023-02-14T02:04:06;62250.66;;;0.34;92.36
7832;BME280;3961;42.058;25.586;2023-02-14T02:06:43;62237.88;;;0.21;90.64
7832;BME280;3961;42.058;25.586;2023-02-14T02:11:45;62221.56;;;0.09;93.15
7832;BME280;3961;42.058;25.586;2023-02-14T02:14:16;62215.03;;;0.00;94.76
7832;BME280;3961;42.058;25.586;2023-02-14T02:19:53;62226.69;;;0.13;93.99
7832;BME280;3961;42.058;25.586;2023-02-14T02:25:57;62226.69;;;0.13;92.37
7832;BME280;3961;42.058;25.586;2023-02-14T02:42:14;62205.28;;;-0.04;93.11
7832;BME280;3961;42.058;25.586;2023-02-14T02:44:56;62198.75;;;-0.12;93.83
7832;BME280;3961;42.058;25.586;2023-02-14T02:53:06;62162.50;;;-0.42;97.90
7832;BME280;3961;42.058;25.586;2023-02-14T02:58:32;62194.50;;;-0.18;95.86
7832;BME280;3961;42.058;25.586;2023-02-14T03:01:03;62212.34;;;0.05;94.51
7832;BME280;3961;42.058;25.586;2023-02-14T03:03:32;62220.09;;;0.10;93.46
7832;BME280;3961;42.058;25.586;2023-02-14T03:06:18;62208.13;;;-0.01;92.49
7832;BME280;3961;42.058;25.586;2023-02-14T03:08:44;62223.84;;;0.11;92.46
7832;BME280;3961;42.058;25.586;2023-02-14T03:11:11;62179.59;;;-0.26;94.83
7832;BME280;3961;42.058;25.586;2023-02-14T03:16:31;62207.00;;;-0.02;92.74
7832;BME280;3961;42.058;25.586;2023-02-14T03:19:20;62185.94;;;-0.25;92.91
7832;BME280;3961;42.058;25.586;2023-02-14T03:22:20;62176.19;;;-0.29;95.71
7832;BME280;3961;42.058;25.586;2023-02-14T03:25:12;62180.50;;;-0.28;97.20
7832;BME280;3961;42.058;25.586;2023-02-14T03:27:48;62191.59;;;-0.16;97.02
7832;BME280;3961;42.058;25.586;2023-02-14T03:31:01;62183.66;;;-0.27;97.75
7832;BME280;3961;42.058;25.586;2023-02-14T03:36:13;62227.25;;;0.14;96.65
7832;BME280;3961;42.058;25.586;2023-02-14T03:38:45;62223.50;;;0.13;96.17
7832;BME280;3961;42.058;25.586;2023-02-14T03:41:17;62222.94;;;0.12;96.23
7832;BME280;3961;42.058;25.586;2023-02-14T03:43:52;62240.97;;;0.26;95.72
7832;BME280;3961;42.058;25.586;2023-02-14T03:46:29;62232.16;;;0.16;95.43
7832;BME280;3961;42.058;25.586;2023-02-14T03:49:00;62230.69;;;0.17;94.96
7832;BME280;3961;42.058;25.586;2023-02-14T03:51:30;62209.03;;;-0.03;95.86
7832;BME280;3961;42.058;25.586;2023-02-14T03:53:59;62191.34;;;-0.18;97.04
7832;BME280;3961;42.058;25.586;2023-02-14T03:56:28;62195.00;;;-0.13;97.36
7832;BME280;3961;42.058;25.586;2023-02-14T03:58:57;62206.50;;;-0.07;96.08
7832;BME280;3961;42.058;25.586;2023-02-14T04:01:43;62191.09;;;-0.21;95.42
7832;BME280;3961;42.058;25.586;2023-02-14T04:04:12;62169.59;;;-0.33;96.79
7832;BME280;3961;42.058;25.586;2023-02-14T04:06:39;62179.28;;;-0.24;97.45
7832;BME280;3961;42.058;25.586;2023-02-14T04:09:04;62203.88;;;-0.07;96.67
7832;BME280;3961;42.058;25.586;2023-02-14T04:11:32;62215.84;;;0.04;95.27
7832;BME280;3961;42.058;25.586;2023-02-14T04:14:00;62217.81;;;0.08;95.34
7832;BME280;3961;42.058;25.586;2023-02-14T04:16:25;62225.06;;;0.07;94.17
7832;BME280;3961;42.058;25.586;2023-02-14T04:18:51;62200.47;;;-0.10;94.93
7832;BME280;3961;42.058;25.586;2023-02-14T04:21:35;62222.69;;;0.10;94.17
7832;BME280;3961;42.058;25.586;2023-02-14T04:24:01;62239.81;;;0.25;93.94
7832;BME280;3961;42.058;25.586;2023-02-14T04:26:26;62212.34;;;0.05;95.08
7832;BME280;3961;42.058;25.586;2023-02-14T04:28:52;62237.22;;;0.25;94.66
7832;BME280;3961;42.058;25.586;2023-02-14T04:31:17;62212.09;;;0.03;94.86
7832;BME280;3961;42.058;25.586;2023-02-14T04:33:43;62199.00;;;-0.09;96.07
7832;BME280;3961;42.058;25.586;2023-02-14T04:36:10;62199.91;;;-0.11;95.44
7832;BME280;3961;42.058;25.586;2023-02-14T04:38:36;62199.81;;;-0.06;93.78
7832;BME280;3961;42.058;25.586;2023-02-14T04:41:01;62163.66;;;-0.41;94.32
7832;BME280;3961;42.058;25.586;2023-02-14T04:43:27;62166.00;;;-0.43;96.60
7832;BME280;3961;42.058;25.586;2023-02-14T04:45:53;62150.22;;;-0.50;97.49
7832;BME280;3961;42.058;25.586;2023-02-14T04:48:18;62169.09;;;-0.38;96.94
7832;BME280;3961;42.058;25.586;2023-02-14T04:50:44;62169.34;;;-0.36;97.75
7832;BME280;3961;42.058;25.586;2023-02-14T04:53:09;62170.81;;;-0.37;97.50
7832;BME280;3961;42.058;25.586;2023-02-14T04:55:35;62183.91;;;-0.25;96.86
7832;BME280;3961;42.058;25.586;2023-02-14T04:58:00;62148.56;;;-0.56;99.60
7832;BME280;3961;42.058;25.586;2023-02-14T05:00:26;62156.56;;;-0.49;98.79
7832;BME280;3961;42.058;25.586;2023-02-14T05:02:51;62164.53;;;-0.42;98.29
7832;BME280;3961;42.058;25.586;2023-02-14T05:05:17;62167.16;;;-0.42;97.51
7832;BME280;3961;42.058;25.586;2023-02-14T05:07:42;62173.09;;;-0.35;97.71
7832;BME280;3961;42.058;25.586;2023-02-14T05:10:12;62169.94;;;-0.35;97.76
7832;BME280;3961;42.058;25.586;2023-02-14T05:12:38;62187.25;;;-0.17;96.76
7832;BME280;3961;42.058;25.586;2023-02-14T05:15:03;62172.84;;;-0.37;97.40
7832;BME280;3961;42.058;25.586;2023-02-14T05:17:29;62179.03;;;-0.27;96.43
7832;BME280;3961;42.058;25.586;2023-02-14T05:19:55;62157.38;;;-0.46;96.60
7832;BME280;3961;42.058;25.586;2023-02-14T05:22:20;62149.16;;;-0.56;97.19
7832;BME280;3961;42.058;25.586;2023-02-14T05:24:46;62162.75;;;-0.39;97.42
7832;BME280;3961;42.058;25.586;2023-02-14T05:27:11;62184.72;;;-0.22;95.87
7832;BME280;3961;42.058;25.586;2023-02-14T05:29:37;62192.97;;;-0.12;95.82
7832;BME280;3961;42.058;25.586;2023-02-14T05:32:02;62186.19;;;-0.23;95.86
7832;BME280;3961;42.058;25.586;2023-02-14T05:34:28;62169.34;;;-0.36;96.32
7832;BME280;3961;42.058;25.586;2023-02-14T05:36:54;62128.63;;;-0.74;95.11
7832;BME280;3961;42.058;25.586;2023-02-14T05:39:19;62172.53;;;-0.35;96.19
7832;BME280;3961;42.058;25.586;2023-02-14T05:41:45;62159.34;;;-0.42;97.53
7832;BME280;3961;42.058;25.586;2023-02-14T05:44:10;62165.13;;;-0.42;97.39
7832;BME280;3961;42.058;25.586;2023-02-14T05:46:36;62182.19;;;-0.26;95.57
7832;BME280;3961;42.058;25.586;2023-02-14T05:49:02;62174.81;;;-0.33;95.69
7832;BME280;3961;42.058;25.586;2023-02-14T05:51:27;62199.00;;;-0.09;94.63
7832;BME280;3961;42.058;25.586;2023-02-14T05:53:53;62228.97;;;0.15;93.67
7832;BME280;3961;42.058;25.586;2023-02-14T05:56:18;62235.59;;;0.19;92.41
7832;BME280;3961;42.058;25.586;2023-02-14T05:58:44;62210.06;;;0.03;90.71
7832;BME280;3961;42.058;25.586;2023-02-14T06:01:10;62217.00;;;0.05;92.33
7832;BME280;3961;42.058;25.586;2023-02-14T06:03:35;62211.31;;;-0.01;93.06
7832;BME280;3961;42.058;25.586;2023-02-14T06:06:01;62204.72;;;-0.04;94.80
7832;BME280;3961;42.058;25.586;2023-02-14T06:08:26;62230.69;;;0.17;93.12
7832;BME280;3961;42.058;25.586;2023-02-14T06:10:52;62208.34;;;0.02;93.14
7832;BME280;3961;42.058;25.586;2023-02-14T06:13:18;62232.16;;;0.16;93.64
7832;BME280;3961;42.058;25.586;2023-02-14T06:15:43;62235.75;;;0.26;92.46
7832;BME280;3961;42.058;25.586;2023-02-14T06:18:09;62260.59;;;0.46;91.96
7832;BME280;3961;42.058;25.586;2023-02-14T06:20:34;62261.19;;;0.46;91.56
7832;BME280;3961;42.058;25.586;2023-02-14T06:23:00;62262.31;;;0.47;90.43
7832;BME280;3961;42.058;25.586;2023-02-14T06:25:26;62295.16;;;0.74;89.14
7832;BME280;3961;42.058;25.586;2023-02-14T06:27:55;62318.03;;;0.94;88.05
7832;BME280;3961;42.058;25.586;2023-02-14T06:30:21;62310.59;;;0.88;89.27
7832;BME280;3961;42.058;25.586;2023-02-14T06:32:47;62331.97;;;1.09;88.20
7832;BME280;3961;42.058;25.586;2023-02-14T06:35:13;62322.56;;;0.98;90.31
7832;BME280;3961;42.058;25.586;2023-02-14T06:37:38;62346.34;;;1.17;89.83
7832;BME280;3961;42.058;25.586;2023-02-14T06:40:06;62371.47;;;1.40;87.72
7832;BME280;3961;42.058;25.586;2023-02-14T06:42:33;62373.09;;;1.46;86.62
7832;BME280;3961;42.058;25.586;2023-02-14T06:44:58;62392.75;;;1.65;87.00
7832;BME280;3961;42.058;25.586;2023-02-14T06:47:24;62387.38;;;1.58;85.26
7832;BME280;3961;42.058;25.586;2023-02-14T06:49:49;62379.06;;;1.53;86.38
7832;BME280;3961;42.058;25.586;2023-02-14T06:52:15;62381.66;;;1.53;86.66
7832;BME280;3961;42.058;25.586;2023-02-14T06:54:40;62409.19;;;1.73;87.13
7832;BME280;3961;42.058;25.586;2023-02-14T06:57:06;62419.16;;;1.84;87.31
7832;BME280;3961;42.058;25.586;2023-02-14T06:59:31;62434.56;;;1.98;87.85
7832;BME280;3961;42.058;25.586;2023-02-14T07:01:57;62434.00;;;1.97;87.88
7832;BME280;3961;42.058;25.586;2023-02-14T07:04:22;62456.56;;;2.20;86.88
7832;BME280;3961;42.058;25.586;2023-02-14T07:06:48;62488.34;;;2.46;86.47
7832;BME280;3961;42.058;25.586;2023-02-14T07:09:14;62480.00;;;2.41;86.43
7832;BME280;3961;42.058;25.586;2023-02-14T07:11:42;62486.88;;;2.47;86.35
7832;BME280;3961;42.058;25.586;2023-02-14T07:14:08;62497.75;;;2.56;87.36
7832;BME280;3961;42.058;25.586;2023-02-14T07:16:34;62476.00;;;2.37;86.73
7832;BME280;3961;42.058;25.586;2023-02-14T07:18:59;62523.81;;;2.77;87.52
7832;BME280;3961;42.058;25.586;2023-02-14T07:21:25;62537.22;;;2.91;88.65
7832;BME280;3961;42.058;25.586;2023-02-14T07:23:50;62572.22;;;3.18;88.34
7832;BME280;3961;42.058;25.586;2023-02-14T07:26:16;62597.34;;;3.45;86.77
7832;BME280;3961;42.058;25.586;2023-02-14T07:28:45;62613.94;;;3.59;84.94
7832;BME280;3961;42.058;25.586;2023-02-14T07:31:14;62615.31;;;3.63;83.62
7832;BME280;3961;42.058;25.586;2023-02-14T07:33:40;62617.38;;;3.62;82.59
7832;BME280;3961;42.058;25.586;2023-02-14T07:36:06;62628.59;;;3.70;82.23
7832;BME280;3961;42.058;25.586;2023-02-14T07:38:33;62626.53;;;3.70;83.73
7832;BME280;3961;42.058;25.586;2023-02-14T07:40:59;62624.81;;;3.69;83.08
7832;BME280;3961;42.058;25.586;2023-02-14T07:43:25;62627.13;;;3.71;83.58
7832;BME280;3961;42.058;25.586;2023-02-14T07:45:50;62629.75;;;3.71;83.52
7832;BME280;3961;42.058;25.586;2023-02-14T07:48:16;62660.34;;;4.00;82.88
7832;BME280;3961;42.058;25.586;2023-02-14T07:50:42;62668.72;;;4.05;81.08
7832;BME280;3961;42.058;25.586;2023-02-14T07:53:07;62694.41;;;4.33;79.64
7832;BME280;3961;42.058;25.586;2023-02-14T07:55:33;62729.72;;;4.62;77.81
7832;BME280;3961;42.058;25.586;2023-02-14T07:57:59;62703.69;;;4.36;77.20
7832;BME280;3961;42.058;25.586;2023-02-14T08:00:25;62712.63;;;4.42;75.58
7832;BME280;3961;42.058;25.586;2023-02-14T08:02:51;62741.44;;;4.75;76.83
7832;BME280;3961;42.058;25.586;2023-02-14T08:05:16;62778.16;;;5.07;74.26
7832;BME280;3961;42.058;25.586;2023-02-14T08:07:42;62829.34;;;5.48;73.10
7832;BME280;3961;42.058;25.586;2023-02-14T08:10:09;62833.94;;;5.52;71.65
7832;BME280;3961;42.058;25.586;2023-02-14T08:12:35;62893.69;;;6.04;70.69
7832;BME280;3961;42.058;25.586;2023-02-14T08:15:19;62981.63;;;6.82;69.75
7832;BME280;3961;42.058;25.586;2023-02-14T08:18:04;63097.84;;;7.85;64.96
7832;BME280;3961;42.058;25.586;2023-02-14T08:20:29;63132.72;;;8.13;59.32
7832;BME280;3961;42.058;25.586;2023-02-14T08:22:55;63157.19;;;8.37;58.60
7832;BME280;3961;42.058;25.586;2023-02-14T08:25:23;63090.94;;;7.79;59.32
7832;BME280;3961;42.058;25.586;2023-02-14T08:27:48;63082.63;;;7.69;58.86
7832;BME280;3961;42.058;25.586;2023-02-14T08:30:14;63091.63;;;7.74;59.76
7832;BME280;3961;42.058;25.586;2023-02-14T08:32:40;63087.25;;;7.73;59.99
7832;BME280;3961;42.058;25.586;2023-02-14T08:35:06;63118.25;;;8.05;60.45
7832;BME280;3961;42.058;25.586;2023-02-14T08:37:32;63129.75;;;8.15;59.19
7832;BME280;3961;42.058;25.586;2023-02-14T08:39:57;63128.00;;;8.14;58.26
7832;BME280;3961;42.058;25.586;2023-02-14T08:42:23;63144.38;;;8.30;59.41
7832;BME280;3961;42.058;25.586;2023-02-14T08:44:49;63178.16;;;8.58;58.46
7832;BME280;3961;42.058;25.586;2023-02-14T08:47:14;63178.50;;;8.56;57.84
7832;BME280;3961;42.058;25.586;2023-02-14T08:49:40;63192.91;;;8.68;56.79
7832;BME280;3961;42.058;25.586;2023-02-14T08:52:05;63200.84;;;8.80;57.64
7832;BME280;3961;42.058;25.586;2023-02-14T08:54:31;63245.94;;;9.15;56.72
7832;BME280;3961;42.058;25.586;2023-02-14T08:56:56;63229.34;;;9.07;57.07
7832;BME280;3961;42.058;25.586;2023-02-14T08:59:22;63274.19;;;9.40;56.69
7832;BME280;3961;42.058;25.586;2023-02-14T09:01:47;63279.38;;;9.44;54.46
7832;BME280;3961;42.058;25.586;2023-02-14T09:04:13;63288.03;;;9.52;54.10
7832;BME280;3961;42.058;25.586;2023-02-14T09:06:39;63329.91;;;9.87;53.49
7832;BME280;3961;42.058;25.586;2023-02-14T09:09:05;63339.97;;;9.98;53.45
7832;BME280;3961;42.058;25.586;2023-02-14T09:11:31;63331.97;;;9.86;53.64
7832;BME280;3961;42.058;25.586;2023-02-14T09:13:57;63344.81;;;10.04;53.28
7832;BME280;3961;42.058;25.586;2023-02-14T09:16:24;63353.81;;;10.10;53.37
7832;BME280;3961;42.058;25.586;2023-02-14T09:18:51;63376.34;;;10.30;52.92
7832;BME280;3961;42.058;25.586;2023-02-14T09:21:23;63395.72;;;10.44;52.80
7832;BME280;3961;42.058;25.586;2023-02-14T09:23:49;63401.16;;;10.52;51.31
7832;BME280;3961;42.058;25.586;2023-02-14T09:26:15;63385.94;;;10.36;50.50
7832;BME280;3961;42.058;25.586;2023-02-14T09:28:42;63375.19;;;10.29;49.14
7832;BME280;3961;42.058;25.586;2023-02-14T09:31:19;63386.38;;;10.41;50.87
7832;BME280;3961;42.058;25.586;2023-02-14T09:33:46;63397.69;;;10.49;49.32
7832;BME280;3961;42.058;25.586;2023-02-14T09:36:30;63391.13;;;10.40;48.12
7832;BME280;3961;42.058;25.586;2023-02-14T09:38:56;63385.94;;;10.36;48.15
7832;BME280;3961;42.058;25.586;2023-02-14T09:46:25;63467.13;;;11.05;43.62
7832;BME280;3961;42.058;25.586;2023-02-14T09:48:52;63415.97;;;10.62;44.30
7832;BME280;3961;42.058;25.586;2023-02-14T09:51:23;63396.88;;;10.46;45.27
7832;BME280;3961;42.058;25.586;2023-02-14T09:53:57;63439.88;;;10.86;45.83
7832;BME280;3961;42.058;25.586;2023-02-14T09:59:32;63451.66;;;10.98;45.83
7832;BME280;3961;42.058;25.586;2023-02-14T10:05:17;63470.72;;;11.15;43.55
7832;BME280;3961;42.058;25.586;2023-02-14T10:10:46;63428.88;;;10.76;43.43
7832;BME280;3961;42.058;25.586;2023-02-14T10:16:32;63485.75;;;11.28;43.17
7832;BME280;3961;42.058;25.586;2023-02-14T10:19:27;63447.97;;;10.93;44.81
7832;BME280;3961;42.058;25.586;2023-02-14T10:22:04;63447.84;;;10.97;44.24
7832;BME280;3961;42.058;25.586;2023-02-14T10:27:34;63506.56;;;11.47;45.02
7832;BME280;3961;42.058;25.586;2023-02-14T10:30:01;63531.78;;;11.66;42.97
7832;BME280;3961;42.058;25.586;2023-02-14T10:32:36;63565.91;;;11.96;41.63
7832;BME280;3961;42.058;25.586;2023-02-14T10:35:13;63533.28;;;11.65;42.06
7832;BME280;3961;42.058;25.586;2023-02-14T10:41:13;63482.97;;;11.21;42.52
7832;BME280;3961;42.058;25.586;2023-02-14T10:46:41;63457.44;;;11.03;42.87
7832;BME280;3961;42.058;25.586;2023-02-14T10:52:14;63609.53;;;12.37;43.23
7832;BME280;3961;42.058;25.586;2023-02-14T10:54:45;63613.91;;;12.38;41.98
7832;BME280;3961;42.058;25.586;2023-02-14T10:57:37;63610.56;;;12.31;41.52
7832;BME280;3961;42.058;25.586;2023-02-14T11:02:43;63597.16;;;12.24;40.60
7832;BME280;3961;42.058;25.586;2023-02-14T11:05:30;63570.75;;;12.03;41.17
7832;BME280;3961;42.058;25.586;2023-02-14T11:07:57;63581.19;;;12.12;40.76
7832;BME280;3961;42.058;25.586;2023-02-14T11:10:30;63616.00;;;12.38;40.23
7832;BME280;3961;42.058;25.586;2023-02-14T11:12:58;63621.78;;;12.43;39.68
7832;BME280;3961;42.058;25.586;2023-02-14T11:15:29;63635.69;;;12.55;39.34
7832;BME280;3961;42.058;25.586;2023-02-14T11:18:24;63620.97;;;12.40;39.93
7832;BME280;3961;42.058;25.586;2023-02-14T11:21:13;63614.84;;;12.37;39.35
7832;BME280;3961;42.058;25.586;2023-02-14T11:23:40;63633.72;;;12.51;38.84
7832;BME280;3961;42.058;25.586;2023-02-14T11:26:11;63628.63;;;12.54;40.47
7832;BME280;3961;42.058;25.586;2023-02-14T11:28:59;63636.84;;;12.56;39.15
7832;BME280;3961;42.058;25.586;2023-02-14T11:31:31;63636.75;;;12.61;39.32
7832;BME280;3961;42.058;25.586;2023-02-14T11:33:58;63608.50;;;12.31;38.62
7832;BME280;3961;42.058;25.586;2023-02-14T11:36:25;63587.31;;;12.15;39.96
7832;BME280;3961;42.058;25.586;2023-02-14T11:39:04;63600.03;;;12.26;40.17
7832;BME280;3961;42.058;25.586;2023-02-14T11:41:51;63633.03;;;12.55;39.01
7832;BME280;3961;42.058;25.586;2023-02-14T11:44:20;63665.09;;;12.86;48.09
7832;BME280;3961;42.058;25.586;2023-02-14T11:46:48;63907.78;;;14.96;41.84
7832;BME280;3961;42.058;25.586;2023-02-14T11:49:30;63992.56;;;15.70;36.55
7832;BME280;3961;42.058;25.586;2023-02-14T11:51:57;63884.91;;;14.73;35.63
7832;BME280;3961;42.058;25.586;2023-02-14T12:01:53;63798.13;;;14.00;36.63
7832;BME280;3961;42.058;25.586;2023-02-14T12:04:37;63766.25;;;13.72;36.83
7832;BME280;3961;42.058;25.586;2023-02-14T12:07:30;63773.78;;;13.78;36.54
7832;BME280;3961;42.058;25.586;2023-02-14T12:13:00;63592.53;;;12.20;38.35
7832;BME280;3961;42.058;25.586;2023-02-14T12:31:37;63612.53;;;12.35;38.61
7832;BME280;3961;42.058;25.586;2023-02-14T12:34:03;63621.22;;;12.42;38.05
7832;BME280;3961;42.058;25.586;2023-02-14T12:50:31;63638.25;;;12.60;38.47
7832;BME280;3961;42.058;25.586;2023-02-14T13:06:33;63571.69;;;12.01;38.96
7832;BME280;3961;42.058;25.586;2023-02-14T13:11:52;63595.41;;;12.22;37.23
7832;BME280;3961;42.058;25.586;2023-02-14T13:14:51;63568.81;;;11.99;37.79
7832;BME280;3961;42.058;25.586;2023-02-14T13:17:34;63569.38;;;11.99;38.13
7832;BME280;3961;42.058;25.586;2023-02-14T13:25:56;63568.81;;;11.99;37.11
7832;BME280;3961;42.058;25.586;2023-02-14T13:28:24;63592.88;;;12.18;36.65
7832;BME280;3961;42.058;25.586;2023-02-14T13:30:51;63587.88;;;12.16;36.15
7832;BME280;3961;42.058;25.586;2023-02-14T13:33:31;63624.91;;;12.48;36.33
7832;BME280;3961;42.058;25.586;2023-02-14T13:36:10;63622.03;;;12.45;36.35
7832;BME280;3961;42.058;25.586;2023-02-14T13:38:48;63575.16;;;12.04;37.07
7832;BME280;3961;42.058;25.586;2023-02-14T13:41:15;63551.31;;;11.76;37.14
7832;BME280;3961;42.058;25.586;2023-02-14T13:51:45;63616.59;;;12.38;36.95
7832;BME280;3961;42.058;25.586;2023-02-14T13:56:59;63613.00;;;12.40;38.14
7832;BME280;3961;42.058;25.586;2023-02-14T13:59:29;63615.66;;;12.40;38.61
7832;BME280;3961;42.058;25.586;2023-02-14T14:02:49;63617.41;;;12.41;38.10
7832;BME280;3961;42.058;25.586;2023-02-14T14:21:59;63577.47;;;12.06;38.89
7832;BME280;3961;42.058;25.586;2023-02-14T14:24:33;63532.59;;;11.69;39.28
7832;BME280;3961;42.058;25.586;2023-02-14T14:32:34;63540.44;;;11.74;40.29
7832;BME280;3961;42.058;25.586;2023-02-14T14:35:16;63504.59;;;11.42;41.40
7832;BME280;3961;42.058;25.586;2023-02-14T14:40:33;63426.69;;;10.69;42.19
7832;BME280;3961;42.058;25.586;2023-02-14T14:43:12;63418.16;;;10.69;42.13
7832;BME280;3961;42.058;25.586;2023-02-14T14:45:39;63413.88;;;10.63;42.21
7832;BME280;3961;42.058;25.586;2023-02-14T14:48:13;63418.16;;;10.69;42.58
7832;BME280;3961;42.058;25.586;2023-02-14T14:50:43;63413.53;;;10.65;42.31
7832;BME280;3961;42.058;25.586;2023-02-14T14:55:58;63413.88;;;10.63;42.71
7832;BME280;3961;42.058;25.586;2023-02-14T14:58:39;63409.25;;;10.59;42.91
7832;BME280;3961;42.058;25.586;2023-02-14T15:01:08;63388.94;;;10.46;43.27
7832;BME280;3961;42.058;25.586;2023-02-14T15:03:35;63400.81;;;10.54;43.07
7832;BME280;3961;42.058;25.586;2023-02-14T15:06:15;63414.47;;;10.63;43.20
7832;BME280;3961;42.058;25.586;2023-02-14T15:08:42;63430.63;;;10.77;43.36
7832;BME280;3961;42.058;25.586;2023-02-14T15:11:27;63431.53;;;10.76;43.78
7832;BME280;3961;42.058;25.586;2023-02-14T15:14:17;63415.72;;;10.60;44.41
7832;BME280;3961;42.058;25.586;2023-02-14T15:16:47;63439.06;;;10.83;45.49
7832;BME280;3961;42.058;25.586;2023-02-14T15:19:38;63409.84;;;10.59;47.16
7832;BME280;3961;42.058;25.586;2023-02-14T15:22:42;63382.47;;;10.33;48.86
7832;BME280;3961;42.058;25.586;2023-02-14T15:25:10;63365.63;;;10.23;49.25
7832;BME280;3961;42.058;25.586;2023-02-14T15:27:40;63365.38;;;10.20;49.60
7832;BME280;3961;42.058;25.586;2023-02-14T15:32:46;63321.16;;;9.84;48.64
7832;BME280;3961;42.058;25.586;2023-02-14T15:35:15;63339.84;;;10.02;47.59
7832;BME280;3961;42.058;25.586;2023-02-14T15:37:42;63617.41;;;12.41;54.28
7832;BME280;3961;42.058;25.586;2023-02-14T15:40:20;63624.91;;;12.48;43.73
7832;BME280;3961;42.058;25.586;2023-02-14T15:42:48;63610.09;;;12.37;46.17
7832;BME280;3961;42.058;25.586;2023-02-14T15:48:00;63446.81;;;10.92;47.96
7832;BME280;3961;42.058;25.586;2023-02-14T15:50:29;63380.97;;;10.34;49.39
7832;BME280;3961;42.058;25.586;2023-02-14T15:53:47;63351.50;;;10.08;49.58
7832;BME280;3961;42.058;25.586;2023-02-14T15:55:47;63294.63;;;9.60;51.21
7832;BME280;3961;42.058;25.586;2023-02-14T15:58:18;63294.38;;;9.58;51.65
7832;BME280;3961;42.058;25.586;2023-02-14T16:00:45;63275.94;;;9.41;52.09
7832;BME280;3961;42.058;25.586;2023-02-14T16:03:18;63261.41;;;9.33;52.62
7832;BME280;3961;42.058;25.586;2023-02-14T16:05:46;63257.47;;;9.25;53.15
7832;BME280;3961;42.058;25.586;2023-02-14T16:08:38;63256.31;;;9.24;53.24
7832;BME280;3961;42.058;25.586;2023-02-14T16:11:06;63247.41;;;9.14;53.31
7832;BME280;3961;42.058;25.586;2023-02-14T16:13:44;63235.81;;;9.08;53.39
7832;BME280;3961;42.058;25.586;2023-02-14T16:16:11;63233.50;;;9.06;53.54
7832;BME280;3961;42.058;25.586;2023-02-14T16:21:11;63221.13;;;8.93;53.94
7832;BME280;3961;42.058;25.586;2023-02-14T16:23:38;63208.13;;;8.84;54.11
7832;BME280;3961;42.058;25.586;2023-02-14T16:26:07;63211.91;;;8.85;54.69
7832;BME280;3961;42.058;25.586;2023-02-14T16:28:33;63211.91;;;8.85;54.73
7832;BME280;3961;42.058;25.586;2023-02-14T16:31:02;63206.97;;;8.83;54.64
7832;BME280;3961;42.058;25.586;2023-02-14T16:33:33;63184.50;;;8.63;55.13
7832;BME280;3961;42.058;25.586;2023-02-14T16:36:13;63188.28;;;8.64;55.48